Burghead, United Kingdom
Current Conditions -  °F | °C
As of 8:50 AM on Friday 24 Oct 2014 (Local Time) from EGQK Reporting Station
Scattered Clouds Scattered Clouds  
Wind Chill: 43°   Ceiling: Unl
Heat Index: 48°   Visibility: 6mi
Dew Point: 37°   Wind: 12mph
Humidity: 66%   Direction: 190°S
Pressure: 29.65"   Gusts: NA
Location:  57.7°N, 3.49°W
Report Text: EGQK 240750Z AUTO 19010KT 9999 SCT041/// SCT050/// 09/03 Q1004
Loading
Personal Weather Stations






























Interactive Weather Map
Tropical Storm Tracking
New forecast layout! Learn more

10-Day Weather Forecast

Advertisements
Track Severe Weather on mobile